createdAt,value
2023-01-27T00:01:11.003Z,16.52
2023-01-27T00:03:41.528Z,16.17
2023-01-27T00:06:08.657Z,15.68
2023-01-27T00:08:35.333Z,15.22
2023-01-27T00:11:02.397Z,15.36
2023-01-27T00:13:29.092Z,15.28
2023-01-27T00:15:55.873Z,15.68
2023-01-27T00:18:22.765Z,15.54
2023-01-27T00:20:51.117Z,14.99
2023-01-27T00:23:20.006Z,14.86
2023-01-27T00:25:46.861Z,14.13
2023-01-27T00:28:13.698Z,14.46
2023-01-27T00:30:40.459Z,14.00
2023-01-27T00:33:08.554Z,14.00
2023-01-27T00:36:04.385Z,13.75
2023-01-27T00:38:32.588Z,14.61
2023-01-27T00:40:59.521Z,15.00
2023-01-27T00:43:36.573Z,15.10
2023-01-27T00:46:03.411Z,14.84
2023-01-27T00:48:30.238Z,15.35
2023-01-27T00:50:57.318Z,15.99
2023-01-27T00:53:24.011Z,15.67
2023-01-27T00:55:50.726Z,15.53
2023-01-27T00:58:31.983Z,15.26
2023-01-27T01:01:00.690Z,15.63
2023-01-27T01:03:28.252Z,16.18
2023-01-27T01:05:55.281Z,16.52
2023-01-27T01:08:22.061Z,16.03
2023-01-27T01:10:48.898Z,16.34
2023-01-27T01:13:15.623Z,16.40
2023-01-27T01:15:44.274Z,16.74
2023-01-27T01:21:49.832Z,16.88
2023-01-27T01:24:16.775Z,16.93
2023-01-27T01:26:43.561Z,17.59
2023-01-27T01:29:10.272Z,16.87
2023-01-27T01:31:37.444Z,17.42
2023-01-27T01:34:04.195Z,18.43
2023-01-27T01:36:31.040Z,18.31
2023-01-27T01:38:57.790Z,18.69
2023-01-27T01:41:24.589Z,18.68
2023-01-27T01:43:52.144Z,18.00
2023-01-27T01:46:19.325Z,18.56
2023-01-27T01:48:51.408Z,19.15
2023-01-27T01:51:32.646Z,17.94
2023-01-27T01:54:17.421Z,17.85
2023-01-27T01:56:49.311Z,18.09
2023-01-27T01:59:29.504Z,17.79
2023-01-27T02:01:58.862Z,18.37
2023-01-27T02:04:30.173Z,18.19
2023-01-27T02:07:09.677Z,17.71
2023-01-27T02:09:38.728Z,17.98
2023-01-27T02:12:05.649Z,18.09
2023-01-27T02:14:32.868Z,17.45
2023-01-27T02:16:59.558Z,18.13
2023-01-27T02:19:37.798Z,17.44
2023-01-27T02:22:05.799Z,17.56
2023-01-27T02:24:37.590Z,17.18
2023-01-27T02:27:05.405Z,17.67
2023-01-27T02:29:32.125Z,17.43
2023-01-27T02:31:59.196Z,17.19
2023-01-27T02:34:27.592Z,16.96
2023-01-27T02:36:55.599Z,17.59
2023-01-27T02:39:23.899Z,17.51
2023-01-27T02:41:54.908Z,17.59
2023-01-27T02:44:21.944Z,18.22
2023-01-27T02:46:49.175Z,17.82
2023-01-27T02:49:17.319Z,18.06
2023-01-27T02:51:44.552Z,18.24
2023-01-27T02:54:11.657Z,17.51
2023-01-27T02:56:38.447Z,17.83
2023-01-27T02:59:05.167Z,17.76
2023-01-27T03:01:31.968Z,18.85
2023-01-27T03:04:09.920Z,18.48
2023-01-27T03:06:36.694Z,19.13
2023-01-27T03:09:04.407Z,18.53
2023-01-27T03:11:31.343Z,18.19
2023-01-27T03:13:58.493Z,18.17
2023-01-27T03:16:25.462Z,18.23
2023-01-27T03:18:52.772Z,18.49
2023-01-27T03:21:19.693Z,18.38
2023-01-27T03:23:46.543Z,18.84
2023-01-27T03:26:13.614Z,19.06
2023-01-27T03:28:40.818Z,19.20
2023-01-27T03:31:10.480Z,18.12
2023-01-27T03:33:37.304Z,18.46
2023-01-27T03:36:04.756Z,18.12
2023-01-27T03:38:32.485Z,17.96
2023-01-27T03:40:59.700Z,17.80
2023-01-27T03:43:26.418Z,18.53
2023-01-27T03:45:53.295Z,18.34
2023-01-27T03:48:20.162Z,18.33
2023-01-27T03:50:47.523Z,18.17
2023-01-27T03:53:14.238Z,18.12
2023-01-27T03:55:41.092Z,17.75
2023-01-27T03:58:22.034Z,18.70
2023-01-27T04:00:53.204Z,18.17
2023-01-27T04:03:20.339Z,18.07
2023-01-27T04:05:47.364Z,18.16
2023-01-27T04:08:14.112Z,18.46
2023-01-27T04:10:40.830Z,18.41
2023-01-27T04:13:14.918Z,18.57
2023-01-27T04:15:42.004Z,18.27
2023-01-27T04:18:08.784Z,18.70
2023-01-27T04:20:35.916Z,18.41
2023-01-27T04:23:02.676Z,18.49
2023-01-27T04:25:29.422Z,18.71
2023-01-27T04:27:57.668Z,19.04
2023-01-27T04:30:24.597Z,19.18
2023-01-27T04:32:51.340Z,18.71
2023-01-27T04:35:20.074Z,19.16
2023-01-27T04:38:12.809Z,19.13
2023-01-27T04:40:40.743Z,19.13
2023-01-27T04:43:07.430Z,18.89
2023-01-27T04:45:34.865Z,19.55
2023-01-27T04:48:01.650Z,19.08
2023-01-27T04:50:28.699Z,19.66
2023-01-27T04:52:55.476Z,19.43
2023-01-27T04:55:22.172Z,19.19
2023-01-27T04:57:49.774Z,18.72
2023-01-27T05:00:17.520Z,19.59
2023-01-27T05:02:44.414Z,20.20
2023-01-27T05:05:12.009Z,19.31
2023-01-27T05:07:39.319Z,19.34
2023-01-27T05:10:07.140Z,19.29
2023-01-27T05:12:33.851Z,20.42
2023-01-27T05:15:00.898Z,20.38
2023-01-27T05:17:32.000Z,20.16
2023-01-27T05:19:59.708Z,20.96
2023-01-27T05:22:26.438Z,20.38
2023-01-27T05:24:53.691Z,20.60
2023-01-27T05:27:21.850Z,20.79
2023-01-27T05:29:49.095Z,20.96
2023-01-27T05:32:15.869Z,20.21
2023-01-27T05:34:42.712Z,20.75
2023-01-27T05:37:09.958Z,21.41
2023-01-27T05:39:36.916Z,21.43
2023-01-27T05:42:03.767Z,21.27
2023-01-27T05:44:30.710Z,21.81
2023-01-27T05:46:57.526Z,21.87
2023-01-27T05:49:24.540Z,21.98
2023-01-27T05:51:53.054Z,21.59
2023-01-27T05:54:19.909Z,21.84
2023-01-27T05:56:46.966Z,21.76
2023-01-27T05:59:14.219Z,21.21
2023-01-27T06:01:41.102Z,22.10
2023-01-27T06:04:09.176Z,21.49
2023-01-27T06:06:36.203Z,21.35
2023-01-27T06:09:04.353Z,21.50
2023-01-27T06:11:31.058Z,21.82
2023-01-27T06:13:58.207Z,21.42
2023-01-27T06:16:25.360Z,22.10
2023-01-27T06:18:52.544Z,21.56
2023-01-27T06:21:20.586Z,22.06
2023-01-27T06:23:47.807Z,21.81
2023-01-27T06:26:18.051Z,22.25
2023-01-27T06:28:45.199Z,21.95
2023-01-27T06:31:19.899Z,22.08
2023-01-27T06:33:46.816Z,22.04
2023-01-27T06:36:15.803Z,21.85
2023-01-27T06:38:43.596Z,22.57
2023-01-27T06:41:10.615Z,22.23
2023-01-27T06:43:37.379Z,22.08
2023-01-27T06:46:06.167Z,22.01
2023-01-27T06:48:33.073Z,21.95
2023-01-27T06:50:59.863Z,22.32
2023-01-27T06:53:27.219Z,22.50
2023-01-27T06:55:58.317Z,22.35
2023-01-27T06:58:25.348Z,21.95
2023-01-27T07:00:52.035Z,22.53
2023-01-27T07:03:21.597Z,22.48
2023-01-27T07:05:49.802Z,22.25
2023-01-27T07:08:16.566Z,22.24
2023-01-27T07:10:43.266Z,22.11
2023-01-27T07:13:11.922Z,22.15
2023-01-27T07:15:38.719Z,22.55
2023-01-27T07:18:16.757Z,22.33
2023-01-27T07:20:44.597Z,22.28
2023-01-27T07:23:11.447Z,22.31
2023-01-27T07:25:38.925Z,22.23
2023-01-27T07:28:09.197Z,22.59
2023-01-27T07:30:35.966Z,21.46
2023-01-27T07:33:16.192Z,22.27
2023-01-27T07:35:43.062Z,22.49
2023-01-27T07:38:09.867Z,21.84
2023-01-27T07:40:38.244Z,22.23
2023-01-27T07:43:05.393Z,22.06
2023-01-27T07:45:32.641Z,21.75
2023-01-27T07:48:14.279Z,21.67
2023-01-27T07:50:41.183Z,21.36
2023-01-27T07:53:07.890Z,21.26
2023-01-27T07:55:34.630Z,21.56
2023-01-27T07:58:07.936Z,21.93
2023-01-27T08:00:35.112Z,21.54
2023-01-27T08:03:02.193Z,20.75
2023-01-27T08:05:33.208Z,20.61
2023-01-27T08:07:59.930Z,20.99
2023-01-27T08:10:26.672Z,20.43
2023-01-27T08:12:53.431Z,21.01
2023-01-27T08:15:22.544Z,20.59
2023-01-27T08:17:58.644Z,20.78
2023-01-27T08:20:29.503Z,20.85
2023-01-27T08:22:56.830Z,20.65
2023-01-27T08:25:23.733Z,20.82
2023-01-27T08:27:54.645Z,20.31
2023-01-27T08:30:21.985Z,20.57
2023-01-27T08:32:48.848Z,20.52
2023-01-27T08:35:15.717Z,21.08
2023-01-27T08:37:42.909Z,20.31
2023-01-27T08:40:13.174Z,20.45
2023-01-27T08:42:41.272Z,20.54
2023-01-27T08:45:10.053Z,20.17
2023-01-27T08:47:37.455Z,20.83
2023-01-27T08:50:08.385Z,21.01
2023-01-27T08:52:36.709Z,21.28
2023-01-27T08:55:04.121Z,20.61
2023-01-27T08:57:31.544Z,21.21
2023-01-27T09:00:00.177Z,20.45
2023-01-27T09:02:28.097Z,20.71
2023-01-27T09:04:55.295Z,20.83
2023-01-27T09:07:22.218Z,20.61
2023-01-27T09:09:49.107Z,20.93
2023-01-27T09:12:15.872Z,21.05
2023-01-27T09:14:43.009Z,21.25
2023-01-27T09:17:09.757Z,20.54
2023-01-27T09:19:36.886Z,20.58
2023-01-27T09:22:04.366Z,20.91
2023-01-27T09:24:31.372Z,20.47
2023-01-27T09:27:00.065Z,20.75
2023-01-27T09:29:27.661Z,20.21
2023-01-27T09:31:54.572Z,19.87
2023-01-27T09:34:21.373Z,20.41
2023-01-27T09:36:52.827Z,19.98
2023-01-27T09:39:46.600Z,19.79
2023-01-27T09:45:30.155Z,18.94
2023-01-27T09:48:19.384Z,20.01
2023-01-27T09:50:52.882Z,19.44
2023-01-27T09:53:38.572Z,19.45
2023-01-27T09:56:14.733Z,19.48
2023-01-27T09:58:47.291Z,19.15
2023-01-27T10:01:38.760Z,19.27
2023-01-27T10:04:34.741Z,19.07
2023-01-27T10:07:11.225Z,19.45
2023-01-27T10:09:55.875Z,19.27
2023-01-27T10:12:25.370Z,19.51
2023-01-27T10:15:31.221Z,19.39
2023-01-27T10:18:10.412Z,18.98
2023-01-27T10:20:45.686Z,19.82
2023-01-27T10:23:34.517Z,18.81
2023-01-27T10:26:18.271Z,19.50
2023-01-27T10:28:50.691Z,19.47
2023-01-27T10:31:25.141Z,18.96
2023-01-27T10:33:53.497Z,19.85
2023-01-27T10:36:30.167Z,20.20
2023-01-27T10:39:28.811Z,19.48
2023-01-27T10:42:04.163Z,19.57
2023-01-27T10:44:40.766Z,19.75
2023-01-27T10:47:28.785Z,19.08
2023-01-27T10:50:01.628Z,19.95
2023-01-27T10:52:36.018Z,19.35
2023-01-27T10:55:42.095Z,19.34
2023-01-27T10:58:23.608Z,19.94
2023-01-27T11:04:03.068Z,19.37
2023-01-27T11:06:32.466Z,19.60
2023-01-27T11:09:10.749Z,19.81
2023-01-27T11:11:37.584Z,19.42
2023-01-27T11:14:29.285Z,19.62
2023-01-27T11:17:22.737Z,20.60
2023-01-27T11:20:08.909Z,20.07
2023-01-27T11:22:44.351Z,19.58
2023-01-27T11:25:53.108Z,19.18
2023-01-27T11:28:37.701Z,19.69
2023-01-27T11:31:14.170Z,19.56
2023-01-27T11:34:19.495Z,19.66
2023-01-27T11:36:47.244Z,18.68
2023-01-27T11:39:15.077Z,18.81
2023-01-27T11:41:46.525Z,18.92
2023-01-27T11:44:31.581Z,19.09
2023-01-27T11:46:58.731Z,18.46
2023-01-27T11:49:34.741Z,18.58
2023-01-27T11:52:09.092Z,18.33
2023-01-27T11:54:46.720Z,18.34
2023-01-27T11:59:07.463Z,17.31
2023-01-27T12:00:43.988Z,17.75
2023-01-27T12:03:20.864Z,17.56
2023-01-27T12:05:59.330Z,17.51
2023-01-27T12:08:41.366Z,17.56
2023-01-27T12:11:30.755Z,17.26
2023-01-27T12:14:01.588Z,17.40
2023-01-27T12:16:45.209Z,17.11
2023-01-27T12:19:32.553Z,17.09
2023-01-27T12:22:07.985Z,16.82
2023-01-27T12:24:35.437Z,16.37
2023-01-27T12:27:03.120Z,16.23
2023-01-27T12:29:43.338Z,16.40
2023-01-27T12:32:43.975Z,16.44
2023-01-27T12:35:22.341Z,16.25
2023-01-27T12:37:51.810Z,16.28
2023-01-27T12:40:20.180Z,16.94
2023-01-27T12:42:50.569Z,16.63
2023-01-27T12:45:23.321Z,16.18
2023-01-27T12:48:17.483Z,15.77
2023-01-27T12:50:54.451Z,15.61
2023-01-27T12:53:28.260Z,16.06
2023-01-27T12:56:19.890Z,15.79
2023-01-27T12:58:52.566Z,15.03
2023-01-27T13:01:36.104Z,15.46
2023-01-27T13:04:20.223Z,16.13
2023-01-27T13:07:02.170Z,15.89
2023-01-27T13:09:36.619Z,15.84
2023-01-27T13:12:23.725Z,15.51
2023-01-27T13:14:52.964Z,15.10
2023-01-27T13:17:46.204Z,15.65
2023-01-27T13:20:31.069Z,15.53
2023-01-27T13:23:09.588Z,15.43
2023-01-27T13:25:45.285Z,15.55
2023-01-27T13:28:16.668Z,15.67
2023-01-27T13:30:44.514Z,15.32
2023-01-27T13:33:37.522Z,15.30
2023-01-27T13:36:08.331Z,15.45
2023-01-27T13:39:16.377Z,14.99
2023-01-27T13:41:48.776Z,15.07
2023-01-27T13:44:35.555Z,14.93
2023-01-27T13:47:04.544Z,14.81
2023-01-27T13:50:30.686Z,15.92
2023-01-27T13:53:00.820Z,15.32
2023-01-27T13:55:49.450Z,15.79
2023-01-27T13:58:38.040Z,15.57
2023-01-27T14:01:26.241Z,15.52
2023-01-27T14:04:02.485Z,15.42
2023-01-27T14:06:32.217Z,15.65
2023-01-27T14:09:17.189Z,15.93
2023-01-27T14:12:20.485Z,16.22
2023-01-27T14:15:08.272Z,15.79
2023-01-27T14:17:49.647Z,15.36
2023-01-27T14:20:41.916Z,15.91
2023-01-27T14:23:33.620Z,16.41
2023-01-27T14:26:13.703Z,15.90
2023-01-27T14:29:04.676Z,16.19
2023-01-27T14:32:04.244Z,15.72
2023-01-27T14:34:52.817Z,15.25
2023-01-27T14:37:28.874Z,14.60
2023-01-27T14:40:24.779Z,15.06
2023-01-27T14:43:04.872Z,14.68
2023-01-27T14:45:45.725Z,14.42
2023-01-27T14:48:32.820Z,14.40
2023-01-27T14:51:03.550Z,14.00
2023-01-27T14:53:54.946Z,13.95
2023-01-27T14:56:45.714Z,14.23
2023-01-27T14:59:37.945Z,14.30
2023-01-27T15:02:37.073Z,13.99
2023-01-27T15:05:03.767Z,14.23
2023-01-27T15:07:36.800Z,13.90
2023-01-27T15:10:23.557Z,13.87
2023-01-27T15:13:26.060Z,14.01
2023-01-27T15:16:03.938Z,13.28
2023-01-27T15:18:39.595Z,13.48
2023-01-27T15:21:37.500Z,13.65
2023-01-27T15:24:15.360Z,13.27
2023-01-27T15:26:43.177Z,13.59
2023-01-27T15:29:16.087Z,13.27
2023-01-27T15:31:44.532Z,13.41
2023-01-27T15:34:22.281Z,12.97
2023-01-27T15:37:02.997Z,13.08
2023-01-27T15:39:40.880Z,12.57
2023-01-27T15:42:11.640Z,12.59
2023-01-27T15:44:39.348Z,12.70
2023-01-27T15:47:23.064Z,11.99
2023-01-27T15:50:10.871Z,12.37
2023-01-27T15:52:43.287Z,12.69
2023-01-27T15:55:26.079Z,12.21
2023-01-27T15:58:05.426Z,12.09
2023-01-27T16:00:39.206Z,12.17
2023-01-27T16:03:27.254Z,11.83
2023-01-27T16:06:22.565Z,11.85
2023-01-27T16:08:56.051Z,11.75
2023-01-27T16:11:25.489Z,11.65
2023-01-27T16:13:52.415Z,11.38
2023-01-27T16:16:19.212Z,11.60
2023-01-27T16:19:06.562Z,11.81
2023-01-27T16:21:45.564Z,11.75
2023-01-27T16:24:16.156Z,11.57
2023-01-27T16:26:50.131Z,12.29
2023-01-27T16:29:33.632Z,11.63
2023-01-27T16:32:06.121Z,11.70
2023-01-27T16:34:41.559Z,12.15
2023-01-27T16:37:22.762Z,11.74
2023-01-27T16:40:14.658Z,11.97
2023-01-27T16:42:58.696Z,11.93
2023-01-27T16:45:32.889Z,11.67
2023-01-27T16:48:03.720Z,11.56
2023-01-27T16:50:44.268Z,12.30
2023-01-27T16:53:19.784Z,12.27
2023-01-27T16:56:03.493Z,12.17
2023-01-27T16:58:46.068Z,12.35
2023-01-27T17:01:22.485Z,11.97
2023-01-27T17:03:49.329Z,12.00
2023-01-27T17:06:16.202Z,12.66
2023-01-27T17:08:44.585Z,12.13
2023-01-27T17:11:16.886Z,12.26
2023-01-27T17:13:49.365Z,12.33
2023-01-27T17:16:25.610Z,12.36
2023-01-27T17:18:53.172Z,12.83
2023-01-27T17:21:31.940Z,11.93
2023-01-27T17:24:05.470Z,12.08
2023-01-27T17:26:32.591Z,12.06
2023-01-27T17:28:59.597Z,12.27
2023-01-27T17:31:26.910Z,12.05
2023-01-27T17:34:00.613Z,12.31
2023-01-27T17:36:28.433Z,12.44
2023-01-27T17:38:55.356Z,12.70
2023-01-27T17:41:28.857Z,12.27
2023-01-27T17:43:58.849Z,13.02
2023-01-27T17:46:30.036Z,13.10
2023-01-27T17:49:04.794Z,12.58
2023-01-27T17:51:39.834Z,12.58
2023-01-27T17:54:28.274Z,12.96
2023-01-27T17:57:12.303Z,12.49
2023-01-27T17:59:40.744Z,12.75
2023-01-27T18:02:32.708Z,12.34
2023-01-27T18:05:02.433Z,12.74
2023-01-27T18:07:32.276Z,12.42
2023-01-27T18:09:59.375Z,12.47
2023-01-27T18:12:36.343Z,12.42
2023-01-27T18:15:33.772Z,12.34
2023-01-27T18:18:02.298Z,12.49
2023-01-27T18:20:31.106Z,12.85
2023-01-27T18:23:05.609Z,13.06
2023-01-27T18:25:32.780Z,12.76
2023-01-27T18:28:01.738Z,12.74
2023-01-27T18:30:28.887Z,13.82
2023-01-27T18:33:00.951Z,14.01
2023-01-27T18:35:30.579Z,12.60
2023-01-27T18:37:58.382Z,12.98
2023-01-27T18:40:26.681Z,14.53
2023-01-27T18:42:56.812Z,13.12
2023-01-27T18:45:24.889Z,13.45
2023-01-27T18:47:52.476Z,12.95
2023-01-27T18:50:25.458Z,13.72
2023-01-27T18:52:52.216Z,14.97
2023-01-27T18:55:37.079Z,13.68
2023-01-27T18:58:11.717Z,12.99
2023-01-27T19:00:46.211Z,13.39
2023-01-27T19:03:16.906Z,13.29
2023-01-27T19:05:43.696Z,13.57
2023-01-27T19:08:14.243Z,13.89
2023-01-27T19:10:41.410Z,13.42
2023-01-27T19:13:09.465Z,13.38
2023-01-27T19:15:51.255Z,13.51
2023-01-27T19:19:00.141Z,13.82
2023-01-27T19:21:27.741Z,13.93
2023-01-27T19:23:54.948Z,13.98
2023-01-27T19:26:22.310Z,14.61
2023-01-27T19:28:51.355Z,13.76
2023-01-27T19:31:18.259Z,14.91
2023-01-27T19:33:45.310Z,14.48
2023-01-27T19:36:34.458Z,14.32
2023-01-27T19:39:08.924Z,14.23
2023-01-27T19:41:35.957Z,14.51
2023-01-27T19:44:03.088Z,14.42
2023-01-27T19:46:29.894Z,15.08
2023-01-27T19:48:56.860Z,14.54
2023-01-27T19:51:23.617Z,14.35
2023-01-27T19:53:50.321Z,14.95
2023-01-27T19:56:21.209Z,14.95
2023-01-27T19:58:50.050Z,14.74
2023-01-27T20:01:17.118Z,15.14
2023-01-27T20:03:44.374Z,14.53
2023-01-27T20:06:14.914Z,15.31
2023-01-27T20:08:42.729Z,14.88
2023-01-27T20:11:38.513Z,14.88
2023-01-27T20:14:17.911Z,14.51
2023-01-27T20:16:44.739Z,14.77
2023-01-27T20:19:15.469Z,14.57
2023-01-27T20:21:43.988Z,14.40
2023-01-27T20:24:18.557Z,15.04
2023-01-27T20:26:46.981Z,15.24
2023-01-27T20:29:13.767Z,14.73
2023-01-27T20:31:40.624Z,15.14
2023-01-27T20:34:07.681Z,14.86
2023-01-27T20:36:34.796Z,15.04
2023-01-27T20:39:04.341Z,15.28
2023-01-27T20:41:31.185Z,15.94
2023-01-27T20:43:59.515Z,15.65
2023-01-27T20:46:27.571Z,15.61
2023-01-27T20:48:54.314Z,16.40
2023-01-27T20:51:21.093Z,16.31
2023-01-27T20:53:47.866Z,16.06
2023-01-27T20:56:37.947Z,16.00
2023-01-27T20:59:04.723Z,16.47
2023-01-27T21:01:33.551Z,16.86
2023-01-27T21:04:00.294Z,16.33
2023-01-27T21:06:27.505Z,16.87
2023-01-27T21:08:54.256Z,16.37
2023-01-27T21:11:21.472Z,16.74
2023-01-27T21:13:49.288Z,17.16
2023-01-27T21:16:16.075Z,16.81
2023-01-27T21:18:43.055Z,16.73
2023-01-27T21:21:36.657Z,17.22
2023-01-27T21:24:03.879Z,16.98
2023-01-27T21:26:31.242Z,17.49
2023-01-27T21:28:58.609Z,17.18
2023-01-27T21:31:25.443Z,17.18
2023-01-27T21:33:55.461Z,18.02
2023-01-27T21:36:26.844Z,17.31
2023-01-27T21:39:10.056Z,17.59
2023-01-27T21:41:38.232Z,17.22
2023-01-27T21:44:05.428Z,17.57
2023-01-27T21:46:33.817Z,17.37
2023-01-27T21:49:00.613Z,17.49
2023-01-27T21:51:27.716Z,17.00
2023-01-27T21:53:54.568Z,17.42
2023-01-27T21:56:21.326Z,16.89
2023-01-27T21:58:48.212Z,17.40
2023-01-27T22:01:15.838Z,17.19
2023-01-27T22:03:43.893Z,17.54
2023-01-27T22:06:10.752Z,17.06
2023-01-27T22:08:37.627Z,16.61
2023-01-27T22:11:43.263Z,16.93
2023-01-27T22:14:10.049Z,17.23
2023-01-27T22:16:36.831Z,16.83
2023-01-27T22:19:45.880Z,17.30
2023-01-27T22:22:12.934Z,16.98
2023-01-27T22:24:39.958Z,17.46
2023-01-27T22:27:10.430Z,16.84
2023-01-27T22:29:37.196Z,17.10
2023-01-27T22:32:04.015Z,16.72
2023-01-27T22:34:31.413Z,16.82
2023-01-27T22:36:59.580Z,16.49
2023-01-27T22:39:29.132Z,16.78
2023-01-27T22:41:56.229Z,17.49
2023-01-27T22:44:23.155Z,17.38
2023-01-27T22:46:50.013Z,16.59
2023-01-27T22:49:16.901Z,16.86
2023-01-27T22:51:43.661Z,16.51
2023-01-27T22:54:11.907Z,16.69
2023-01-27T22:56:38.769Z,16.82
2023-01-27T22:59:05.609Z,16.58
2023-01-27T23:01:32.645Z,16.40
2023-01-27T23:03:59.561Z,16.20
2023-01-27T23:06:26.840Z,16.30
2023-01-27T23:08:55.058Z,16.27
2023-01-27T23:11:21.916Z,15.97
2023-01-27T23:13:49.347Z,16.28
2023-01-27T23:16:16.428Z,16.59
2023-01-27T23:18:43.328Z,16.78
2023-01-27T23:21:10.938Z,16.62
2023-01-27T23:23:37.621Z,16.31
2023-01-27T23:26:08.171Z,16.36
2023-01-27T23:28:35.295Z,16.93
2023-01-27T23:31:02.190Z,16.53
2023-01-27T23:33:33.758Z,16.45
2023-01-27T23:36:00.519Z,17.58
2023-01-27T23:38:33.401Z,17.36
2023-01-27T23:41:05.273Z,16.69
2023-01-27T23:43:32.071Z,16.73
2023-01-27T23:45:58.875Z,16.43
2023-01-27T23:48:25.702Z,16.93
2023-01-27T23:50:52.458Z,16.81
2023-01-27T23:53:20.563Z,16.29
2023-01-27T23:55:57.246Z,17.64
2023-01-27T23:58:24.334Z,17.70
